createdAt,value
2022-12-03T00:00:12.965Z,80.04
2022-12-03T00:03:01.370Z,80.11
2022-12-03T00:05:29.449Z,80.13
2022-12-03T00:07:57.689Z,80.04
2022-12-03T00:10:25.642Z,80.06
2022-12-03T00:12:53.431Z,79.96
2022-12-03T00:15:21.327Z,80.04
2022-12-03T00:17:49.163Z,79.84
2022-12-03T00:20:20.649Z,79.97
2022-12-03T00:22:48.957Z,80.08
2022-12-03T00:25:17.771Z,79.92
2022-12-03T00:27:45.734Z,79.99
2022-12-03T00:30:14.441Z,80.02
2022-12-03T00:32:43.042Z,80.17
2022-12-03T00:35:11.256Z,80.13
2022-12-03T00:37:39.166Z,80.16
2022-12-03T00:40:08.162Z,80.08
2022-12-03T00:42:35.997Z,80.21
2022-12-03T00:45:05.260Z,80.16
2022-12-03T00:47:33.196Z,80.08
2022-12-03T00:50:01.036Z,80.11
2022-12-03T00:52:28.930Z,80.20
2022-12-03T00:54:56.735Z,80.35
2022-12-03T00:57:24.724Z,80.24
2022-12-03T00:59:52.516Z,80.26
2022-12-03T01:02:20.482Z,80.24
2022-12-03T01:04:48.579Z,80.42
2022-12-03T01:07:16.475Z,80.22
2022-12-03T01:09:44.304Z,80.22
2022-12-03T01:12:12.139Z,80.28
2022-12-03T01:14:40.575Z,80.38
2022-12-03T01:17:08.503Z,80.36
2022-12-03T01:19:36.531Z,80.43
2022-12-03T01:22:04.725Z,80.32
2022-12-03T01:24:32.584Z,80.22
2022-12-03T01:27:01.092Z,80.19
2022-12-03T01:29:29.074Z,80.16
2022-12-03T01:32:15.573Z,80.18
2022-12-03T01:34:44.526Z,80.32
2022-12-03T01:37:12.442Z,80.40
2022-12-03T01:39:40.764Z,80.34
2022-12-03T01:42:22.501Z,80.42
2022-12-03T01:44:55.527Z,80.47
2022-12-03T01:47:33.183Z,80.39
2022-12-03T01:50:06.274Z,80.41
2022-12-03T01:52:38.374Z,80.52
2022-12-03T01:55:20.013Z,80.54
2022-12-03T01:57:51.663Z,80.53
2022-12-03T02:00:22.784Z,80.52
2022-12-03T02:02:55.072Z,80.64
2022-12-03T02:05:26.522Z,80.69
2022-12-03T02:07:55.085Z,80.77
2022-12-03T02:10:27.368Z,80.65
2022-12-03T02:12:59.727Z,80.79
2022-12-03T02:15:27.956Z,80.81
2022-12-03T02:17:56.768Z,80.72
2022-12-03T02:20:24.687Z,80.88
2022-12-03T02:23:13.190Z,80.82
2022-12-03T02:25:41.169Z,80.81
2022-12-03T02:28:09.968Z,80.73
2022-12-03T02:30:37.935Z,80.73
2022-12-03T02:33:05.780Z,80.67
2022-12-03T02:35:36.433Z,80.67
2022-12-03T02:38:12.367Z,80.68
2022-12-03T02:40:41.777Z,80.80
2022-12-03T02:43:10.608Z,80.70
2022-12-03T02:45:41.738Z,80.67
2022-12-03T02:48:20.176Z,80.70
2022-12-03T02:50:51.826Z,80.72
2022-12-03T02:53:23.488Z,80.72
2022-12-03T02:55:53.293Z,80.61
2022-12-03T02:58:23.387Z,80.66
2022-12-03T03:00:54.051Z,80.72
2022-12-03T03:03:23.756Z,80.70
2022-12-03T03:05:52.576Z,80.62
2022-12-03T03:08:20.567Z,80.46
2022-12-03T03:10:49.567Z,80.60
2022-12-03T03:13:19.479Z,80.70
2022-12-03T03:15:48.019Z,80.83
2022-12-03T03:18:16.724Z,80.66
2022-12-03T03:20:45.355Z,80.79
2022-12-03T03:23:17.887Z,80.84
2022-12-03T03:26:00.005Z,80.63
2022-12-03T03:28:30.472Z,80.72
2022-12-03T03:31:02.263Z,80.78
2022-12-03T03:33:31.372Z,80.95
2022-12-03T03:36:00.623Z,80.78
2022-12-03T03:38:30.282Z,80.84
2022-12-03T03:41:01.857Z,80.89
2022-12-03T03:43:31.022Z,80.95
2022-12-03T03:45:59.245Z,80.94
2022-12-03T03:48:27.816Z,80.83
2022-12-03T03:50:56.797Z,80.90
2022-12-03T03:53:25.007Z,81.02
2022-12-03T03:55:53.186Z,81.05
2022-12-03T03:58:21.080Z,81.04
2022-12-03T04:00:48.990Z,80.93
2022-12-03T04:03:16.860Z,81.03
2022-12-03T04:05:44.709Z,81.13
2022-12-03T04:08:12.561Z,81.06
2022-12-03T04:10:59.110Z,81.14
2022-12-03T04:13:27.000Z,81.15
2022-12-03T04:15:54.967Z,81.10
2022-12-03T04:18:41.516Z,81.07
2022-12-03T04:21:39.226Z,81.05
2022-12-03T04:24:09.446Z,81.17
2022-12-03T04:26:57.042Z,81.25
2022-12-03T04:29:24.972Z,81.11
2022-12-03T04:32:11.187Z,81.21
2022-12-03T04:34:57.961Z,81.12
2022-12-03T04:37:25.867Z,81.04
2022-12-03T04:39:53.764Z,81.00
2022-12-03T04:42:21.921Z,81.15
2022-12-03T04:44:50.395Z,81.12
2022-12-03T04:47:20.861Z,81.19
2022-12-03T04:49:50.728Z,81.08
2022-12-03T04:52:20.481Z,81.13
2022-12-03T04:54:48.437Z,81.20
2022-12-03T04:57:17.360Z,81.17
2022-12-03T04:59:45.266Z,81.29
2022-12-03T05:02:13.235Z,81.28
2022-12-03T05:04:41.934Z,81.21
2022-12-03T05:07:11.533Z,81.19
2022-12-03T05:09:39.362Z,81.24
2022-12-03T05:12:07.296Z,81.38
2022-12-03T05:14:36.475Z,81.39
2022-12-03T05:17:04.313Z,81.24
2022-12-03T05:19:50.906Z,81.24
2022-12-03T05:22:18.745Z,81.48
2022-12-03T05:24:46.555Z,81.34
2022-12-03T05:27:16.621Z,81.27
2022-12-03T05:29:46.677Z,81.20
2022-12-03T05:32:15.153Z,81.19
2022-12-03T05:34:42.939Z,81.22
2022-12-03T05:37:11.155Z,81.29
2022-12-03T05:39:39.113Z,81.33
2022-12-03T05:42:27.251Z,81.48
2022-12-03T05:44:55.661Z,81.43
2022-12-03T05:47:23.712Z,81.30
2022-12-03T05:49:51.492Z,81.33
2022-12-03T05:52:19.309Z,81.29
2022-12-03T05:54:47.216Z,81.26
2022-12-03T05:57:15.096Z,81.33
2022-12-03T05:59:42.970Z,81.21
2022-12-03T06:02:11.383Z,81.14
2022-12-03T06:04:39.281Z,81.15
2022-12-03T06:07:12.323Z,81.31
2022-12-03T06:09:41.740Z,81.31
2022-12-03T06:12:09.588Z,81.37
2022-12-03T06:14:37.470Z,81.37
2022-12-03T06:17:05.316Z,81.40
2022-12-03T06:19:33.642Z,81.54
2022-12-03T06:22:01.510Z,81.48
2022-12-03T06:24:29.380Z,81.54
2022-12-03T06:26:57.244Z,81.52
2022-12-03T06:29:25.159Z,81.38
2022-12-03T06:31:53.077Z,81.58
2022-12-03T06:34:20.884Z,81.58
2022-12-03T06:36:50.226Z,81.60
2022-12-03T06:39:18.154Z,81.48
2022-12-03T06:41:45.894Z,81.46
2022-12-03T06:44:14.213Z,81.57
2022-12-03T06:46:42.296Z,81.66
2022-12-03T06:49:10.285Z,81.63
2022-12-03T06:51:38.729Z,81.53
2022-12-03T06:54:06.917Z,81.66
2022-12-03T06:56:40.359Z,81.58
2022-12-03T06:59:12.985Z,81.73
2022-12-03T07:01:40.836Z,81.58
2022-12-03T07:04:08.764Z,81.55
2022-12-03T07:06:36.625Z,81.63
2022-12-03T07:09:04.417Z,81.60
2022-12-03T07:11:32.267Z,81.59
2022-12-03T07:14:05.403Z,81.53
2022-12-03T07:16:37.453Z,81.55
2022-12-03T07:19:06.658Z,81.58
2022-12-03T07:21:34.541Z,81.71
2022-12-03T07:24:02.371Z,81.60
2022-12-03T07:26:30.222Z,81.50
2022-12-03T07:28:58.237Z,81.62
2022-12-03T07:31:26.245Z,81.59
2022-12-03T07:33:54.156Z,81.64
2022-12-03T07:36:22.052Z,81.67
2022-12-03T07:38:49.863Z,81.45
2022-12-03T07:41:17.737Z,81.52
2022-12-03T07:43:45.543Z,81.61
2022-12-03T07:46:13.522Z,81.55
2022-12-03T07:48:41.402Z,81.61
2022-12-03T07:51:14.303Z,81.74
2022-12-03T07:53:43.529Z,81.76
2022-12-03T07:56:11.579Z,81.73
2022-12-03T07:58:39.522Z,81.73
2022-12-03T08:01:07.500Z,81.61
2022-12-03T08:03:35.369Z,81.88
2022-12-03T08:06:03.318Z,81.69
2022-12-03T08:08:31.231Z,81.82
2022-12-03T08:10:59.059Z,81.61
2022-12-03T08:13:27.930Z,81.57
2022-12-03T08:15:57.404Z,81.63
2022-12-03T08:18:25.536Z,81.61
2022-12-03T08:20:53.497Z,81.70
2022-12-03T08:23:25.619Z,81.65
2022-12-03T08:25:53.559Z,81.63
2022-12-03T08:28:24.198Z,81.60
2022-12-03T08:31:12.363Z,81.59
2022-12-03T08:33:41.938Z,81.71
2022-12-03T08:36:29.361Z,81.51
2022-12-03T08:39:01.296Z,81.31
2022-12-03T08:41:48.805Z,81.56
2022-12-03T08:44:38.864Z,81.78
2022-12-03T08:47:10.031Z,81.72
2022-12-03T08:53:31.789Z,81.64
2022-12-03T08:56:10.830Z,81.51
2022-12-03T08:58:47.659Z,81.71
2022-12-03T09:01:38.948Z,81.84
2022-12-03T09:04:22.701Z,81.75
2022-12-03T09:06:52.309Z,81.69
2022-12-03T09:09:20.752Z,81.49
2022-12-03T09:11:49.239Z,81.62
2022-12-03T09:14:23.717Z,81.61
2022-12-03T09:16:55.992Z,81.56
2022-12-03T09:19:25.997Z,81.57
2022-12-03T09:21:54.947Z,81.55
2022-12-03T09:24:23.206Z,81.47
2022-12-03T09:26:51.262Z,81.58
2022-12-03T09:29:19.152Z,81.51
2022-12-03T09:31:47.278Z,81.56
2022-12-03T09:34:15.712Z,81.63
2022-12-03T09:36:43.559Z,81.44
2022-12-03T09:39:11.481Z,81.33
2022-12-03T09:41:39.440Z,81.29
2022-12-03T09:44:13.711Z,81.14
2022-12-03T09:46:46.498Z,81.17
2022-12-03T09:49:17.762Z,81.11
2022-12-03T09:51:46.595Z,81.16
2022-12-03T09:54:24.034Z,81.16
2022-12-03T09:56:53.985Z,81.01
2022-12-03T09:59:25.782Z,81.13
2022-12-03T10:01:54.633Z,81.21
2022-12-03T10:04:22.704Z,81.28
2022-12-03T10:06:51.298Z,81.00
2022-12-03T10:09:25.688Z,81.03
2022-12-03T10:11:55.579Z,81.24
2022-12-03T10:14:23.867Z,81.22
2022-12-03T10:16:52.238Z,81.21
2022-12-03T10:19:31.962Z,81.06
2022-12-03T10:22:05.134Z,80.96
2022-12-03T10:24:34.991Z,81.00
2022-12-03T10:30:44.107Z,80.91
2022-12-03T10:33:33.442Z,80.93
2022-12-03T10:36:23.537Z,80.82
2022-12-03T10:39:10.927Z,80.82
2022-12-03T10:41:41.282Z,80.89
2022-12-03T10:44:20.696Z,80.92
2022-12-03T10:47:07.393Z,80.76
2022-12-03T10:49:36.158Z,80.84
2022-12-03T10:52:05.134Z,80.75
2022-12-03T10:54:35.099Z,80.78
2022-12-03T10:57:03.217Z,80.59
2022-12-03T10:59:33.634Z,80.73
2022-12-03T11:04:52.986Z,80.90
2022-12-03T11:07:23.902Z,80.82
2022-12-03T11:09:58.865Z,80.72
2022-12-03T11:13:13.837Z,80.71
2022-12-03T11:15:44.620Z,80.62
2022-12-03T11:18:38.374Z,80.55
2022-12-03T11:21:09.021Z,80.59
2022-12-03T11:23:46.266Z,80.78
2022-12-03T11:26:56.933Z,80.82
2022-12-03T11:29:56.644Z,80.90
2022-12-03T11:32:43.111Z,80.61
2022-12-03T11:35:12.905Z,80.32
2022-12-03T11:38:18.717Z,80.60
2022-12-03T11:41:25.333Z,80.55
2022-12-03T11:44:29.467Z,80.71
2022-12-03T11:46:59.395Z,80.60
2022-12-03T11:49:39.596Z,80.47
2022-12-03T11:52:41.784Z,80.53
2022-12-03T11:55:22.098Z,80.56
2022-12-03T11:58:03.608Z,80.56
2022-12-03T12:00:32.315Z,80.43
2022-12-03T12:03:03.430Z,80.68
2022-12-03T12:05:33.750Z,80.74
2022-12-03T12:08:03.113Z,80.67
2022-12-03T12:10:43.861Z,80.53
2022-12-03T12:13:25.240Z,80.64
2022-12-03T12:15:53.587Z,80.47
2022-12-03T12:18:36.829Z,80.45
2022-12-03T12:21:42.957Z,80.39
2022-12-03T12:24:40.224Z,80.66
2022-12-03T12:27:12.074Z,80.38
2022-12-03T12:29:55.076Z,80.30
2022-12-03T12:32:51.257Z,80.23
2022-12-03T12:35:25.317Z,80.38
2022-12-03T12:37:59.965Z,80.53
2022-12-03T12:40:32.441Z,80.51
2022-12-03T12:43:15.381Z,80.41
2022-12-03T12:45:44.735Z,80.41
2022-12-03T12:48:15.440Z,80.48
2022-12-03T12:50:47.289Z,80.52
2022-12-03T12:53:35.040Z,80.52
2022-12-03T12:56:26.261Z,80.62
2022-12-03T12:58:57.171Z,80.40
2022-12-03T13:01:28.659Z,80.34
2022-12-03T13:03:56.989Z,80.42
2022-12-03T13:06:46.110Z,80.42
2022-12-03T13:09:23.796Z,80.41
2022-12-03T13:11:58.824Z,80.40
2022-12-03T13:14:34.684Z,80.38
2022-12-03T13:17:24.620Z,80.33
2022-12-03T13:20:30.506Z,80.34
2022-12-03T13:22:58.595Z,80.26
2022-12-03T13:26:36.105Z,80.26
2022-12-03T13:29:15.641Z,80.26
2022-12-03T13:31:50.587Z,80.29
2022-12-03T13:34:27.845Z,80.28
2022-12-03T13:36:58.587Z,80.39
2022-12-03T13:39:33.256Z,80.46
2022-12-03T13:42:38.033Z,80.33
2022-12-03T13:45:36.180Z,80.54
2022-12-03T13:48:35.721Z,80.33
2022-12-03T13:51:36.199Z,80.48
2022-12-03T13:54:14.389Z,80.50
2022-12-03T13:56:44.096Z,80.62
2022-12-03T13:59:12.149Z,80.52
2022-12-03T14:01:40.575Z,80.50
2022-12-03T14:04:27.780Z,80.61
2022-12-03T14:06:55.822Z,80.51
2022-12-03T14:09:38.969Z,80.35
2022-12-03T14:12:25.868Z,80.48
2022-12-03T14:14:57.527Z,80.53
2022-12-03T14:17:31.018Z,80.54
2022-12-03T14:20:01.548Z,80.52
2022-12-03T14:22:38.047Z,80.56
2022-12-03T14:25:07.165Z,80.58
2022-12-03T14:27:35.197Z,80.49
2022-12-03T14:30:07.511Z,80.59
2022-12-03T14:32:36.683Z,80.52
2022-12-03T14:35:09.666Z,80.62
2022-12-03T14:37:39.414Z,80.77
2022-12-03T14:40:10.484Z,80.78
2022-12-03T14:42:40.373Z,80.67
2022-12-03T14:45:11.826Z,80.44
2022-12-03T14:47:44.582Z,80.48
2022-12-03T14:50:15.292Z,80.45
2022-12-03T14:52:52.593Z,80.50
2022-12-03T14:55:20.480Z,80.65
2022-12-03T14:57:48.416Z,80.74
2022-12-03T15:00:17.232Z,80.83
2022-12-03T15:02:45.206Z,80.72
2022-12-03T15:05:16.612Z,80.71
2022-12-03T15:07:44.475Z,80.71
2022-12-03T15:10:21.332Z,80.57
2022-12-03T15:12:50.992Z,80.81
2022-12-03T15:15:20.535Z,80.80
2022-12-03T15:18:45.189Z,80.70
2022-12-03T15:21:35.082Z,80.80
2022-12-03T15:24:04.166Z,80.90
2022-12-03T15:26:32.493Z,80.94
2022-12-03T15:29:00.514Z,80.74
2022-12-03T15:31:28.554Z,80.85
2022-12-03T15:34:27.078Z,81.01
2022-12-03T15:36:55.845Z,81.14
2022-12-03T15:42:12.592Z,81.13
2022-12-03T15:44:40.574Z,81.09
2022-12-03T15:47:08.527Z,81.23
2022-12-03T15:49:36.469Z,81.15
2022-12-03T15:54:50.603Z,81.35
2022-12-03T16:00:14.910Z,81.45
2022-12-03T16:02:52.488Z,81.43
2022-12-03T16:05:20.956Z,81.45
2022-12-03T16:07:48.917Z,81.49
2022-12-03T16:10:17.695Z,81.45
2022-12-03T16:12:51.587Z,81.63
2022-12-03T16:15:23.695Z,81.52
2022-12-03T16:17:54.708Z,81.57
2022-12-03T16:20:28.186Z,81.61
2022-12-03T16:22:58.377Z,81.52
2022-12-03T16:25:28.587Z,81.60
2022-12-03T16:28:05.465Z,81.72
2022-12-03T16:31:02.644Z,81.57
2022-12-03T16:33:33.822Z,81.65
2022-12-03T16:36:23.427Z,81.68
2022-12-03T16:39:32.139Z,81.61
2022-12-03T16:42:10.421Z,81.75
2022-12-03T16:45:17.611Z,81.73
2022-12-03T16:50:44.697Z,81.89
2022-12-03T16:53:16.110Z,81.76
2022-12-03T16:55:44.148Z,81.53
2022-12-03T16:58:12.263Z,81.66
2022-12-03T17:00:40.339Z,81.74
2022-12-03T17:03:08.318Z,81.54
2022-12-03T17:05:36.331Z,81.70
2022-12-03T17:08:04.426Z,81.82
2022-12-03T17:10:32.836Z,81.92
2022-12-03T17:13:09.302Z,81.86
2022-12-03T17:15:39.690Z,81.92
2022-12-03T17:18:08.722Z,81.91
2022-12-03T17:20:37.414Z,81.83
2022-12-03T17:23:05.313Z,82.07
2022-12-03T17:25:34.600Z,82.03
2022-12-03T17:28:02.664Z,82.00
2022-12-03T17:30:30.625Z,81.99
2022-12-03T17:32:58.570Z,81.89
2022-12-03T17:35:28.567Z,81.87
2022-12-03T17:37:56.663Z,81.87
2022-12-03T17:40:24.773Z,82.06
2022-12-03T17:42:52.676Z,81.94
2022-12-03T17:45:20.511Z,82.06
2022-12-03T17:47:48.343Z,82.07
2022-12-03T17:50:16.620Z,82.01
2022-12-03T17:52:44.722Z,81.92
2022-12-03T17:55:21.094Z,82.13
2022-12-03T17:57:54.232Z,82.09
2022-12-03T18:00:22.189Z,81.92
2022-12-03T18:02:50.087Z,81.94
2022-12-03T18:05:18.003Z,82.02
2022-12-03T18:07:45.971Z,81.88
2022-12-03T18:10:13.766Z,82.01
2022-12-03T18:12:41.650Z,82.09
2022-12-03T18:15:09.862Z,81.83
2022-12-03T18:17:37.779Z,81.93
2022-12-03T18:20:06.645Z,81.77
2022-12-03T18:22:35.277Z,81.86
2022-12-03T18:25:04.021Z,82.04
2022-12-03T18:27:31.970Z,82.03
2022-12-03T18:30:00.919Z,82.01
2022-12-03T18:32:30.030Z,82.10
2022-12-03T18:34:58.245Z,82.07
2022-12-03T18:37:28.397Z,82.20
2022-12-03T18:39:57.895Z,82.09
2022-12-03T18:42:27.085Z,82.16
2022-12-03T18:44:56.921Z,82.11
2022-12-03T18:47:28.672Z,82.21
2022-12-03T18:49:57.146Z,82.15
2022-12-03T18:52:26.103Z,82.20
2022-12-03T18:54:55.404Z,82.35
2022-12-03T18:57:23.699Z,82.17
2022-12-03T18:59:51.967Z,82.07
2022-12-03T19:02:54.237Z,82.21
2022-12-03T19:05:11.893Z,82.22
2022-12-03T19:07:39.780Z,82.19
2022-12-03T19:10:09.043Z,82.00
2022-12-03T19:12:38.011Z,82.05
2022-12-03T19:15:06.717Z,82.02
2022-12-03T19:17:34.571Z,82.11
2022-12-03T19:20:02.392Z,82.16
2022-12-03T19:22:30.166Z,82.07
2022-12-03T19:24:57.984Z,82.20
2022-12-03T19:27:25.829Z,82.24
2022-12-03T19:29:54.025Z,82.24
2022-12-03T19:32:22.532Z,82.16
2022-12-03T19:34:50.414Z,82.28
2022-12-03T19:37:18.221Z,82.40
2022-12-03T19:39:46.566Z,82.30
2022-12-03T19:42:14.383Z,82.37
2022-12-03T19:44:42.290Z,82.27
2022-12-03T19:47:10.195Z,82.29
2022-12-03T19:49:38.117Z,82.48
2022-12-03T19:52:06.199Z,82.42
2022-12-03T19:54:34.049Z,82.45
2022-12-03T19:57:01.951Z,82.26
2022-12-03T19:59:29.861Z,82.44
2022-12-03T20:01:58.106Z,82.41
2022-12-03T20:04:26.726Z,82.60
2022-12-03T20:06:54.626Z,82.55
2022-12-03T20:09:22.811Z,82.49
2022-12-03T20:11:51.547Z,82.54
2022-12-03T20:14:20.001Z,82.58
2022-12-03T20:16:48.532Z,82.61
2022-12-03T20:19:17.325Z,82.60
2022-12-03T20:21:45.641Z,82.58
2022-12-03T20:24:16.508Z,82.48
2022-12-03T20:26:44.473Z,82.70
2022-12-03T20:29:12.526Z,82.67
2022-12-03T20:31:40.559Z,82.56
2022-12-03T20:34:10.971Z,82.66
2022-12-03T20:36:40.000Z,82.63
2022-12-03T20:39:08.459Z,82.53
2022-12-03T20:41:37.298Z,82.59
2022-12-03T20:44:07.644Z,82.63
2022-12-03T20:46:36.229Z,82.76
2022-12-03T20:49:04.705Z,82.85
2022-12-03T20:51:32.803Z,82.80
2022-12-03T20:54:01.377Z,82.89
2022-12-03T20:56:32.417Z,82.85
2022-12-03T20:59:06.524Z,82.87
2022-12-03T21:01:38.385Z,82.74
2022-12-03T21:04:07.388Z,82.85
2022-12-03T21:06:37.089Z,82.78
2022-12-03T21:09:07.075Z,82.86
2022-12-03T21:11:36.402Z,82.97
2022-12-03T21:14:05.094Z,82.96
2022-12-03T21:19:23.994Z,82.86
2022-12-03T21:21:51.991Z,82.96
2022-12-03T21:24:20.044Z,83.05
2022-12-03T21:26:47.881Z,83.04
2022-12-03T21:29:16.530Z,82.83
2022-12-03T21:31:44.448Z,83.05
2022-12-03T21:34:12.500Z,83.23
2022-12-03T21:36:40.692Z,83.23
2022-12-03T21:39:08.543Z,83.13
2022-12-03T21:41:36.481Z,83.27
2022-12-03T21:44:04.592Z,83.12
2022-12-03T21:47:10.951Z,83.16
2022-12-03T21:49:20.447Z,83.08
2022-12-03T21:51:49.181Z,83.12
2022-12-03T21:54:17.229Z,83.13
2022-12-03T21:56:45.084Z,83.00
2022-12-03T21:59:12.890Z,83.11
2022-12-03T22:01:45.705Z,83.12
2022-12-03T22:04:15.072Z,83.06
2022-12-03T22:06:42.870Z,83.14
2022-12-03T22:09:10.698Z,83.04
2022-12-03T22:11:38.958Z,83.17
2022-12-03T22:14:08.284Z,83.13
2022-12-03T22:16:36.266Z,83.10
2022-12-03T22:19:04.428Z,83.21
2022-12-03T22:21:32.246Z,83.23
2022-12-03T22:24:00.156Z,83.15
2022-12-03T22:26:28.008Z,83.13
2022-12-03T22:28:55.846Z,83.04
2022-12-03T22:31:23.804Z,83.05
2022-12-03T22:33:51.756Z,83.26
2022-12-03T22:36:21.542Z,83.34
2022-12-03T22:38:50.929Z,83.29
2022-12-03T22:41:19.953Z,83.15
2022-12-03T22:43:48.883Z,82.99
2022-12-03T22:46:17.807Z,83.13
2022-12-03T22:48:46.757Z,83.28
2022-12-03T22:51:20.718Z,83.29
2022-12-03T22:53:54.468Z,83.41
2022-12-03T22:56:22.743Z,83.43
2022-12-03T22:58:50.996Z,83.39
2022-12-03T23:01:26.245Z,83.35
2022-12-03T23:03:55.417Z,83.24
2022-12-03T23:06:24.308Z,83.13
2022-12-03T23:08:52.733Z,83.29
2022-12-03T23:11:21.662Z,83.33
2022-12-03T23:13:49.561Z,83.21
2022-12-03T23:16:21.083Z,83.28
2022-12-03T23:18:50.186Z,83.33
2022-12-03T23:21:29.272Z,83.13
2022-12-03T23:24:03.871Z,83.30
2022-12-03T23:26:36.764Z,83.43
2022-12-03T23:29:06.129Z,83.47
2022-12-03T23:31:34.994Z,83.46
2022-12-03T23:34:04.000Z,83.34
2022-12-03T23:36:33.008Z,83.49
2022-12-03T23:39:01.221Z,83.40
2022-12-03T23:41:29.133Z,83.30
2022-12-03T23:43:57.469Z,83.31
2022-12-03T23:46:27.419Z,83.49
2022-12-03T23:48:56.180Z,83.37
2022-12-03T23:51:25.552Z,83.43
2022-12-03T23:53:55.009Z,83.25
2022-12-03T23:56:32.471Z,83.36
2022-12-03T23:59:00.361Z,83.53
